sensor_id;sensor_type;location;lat;lon;timestamp;pressure;altitude;pressure_sealevel;temperature;humidity
77366;BME280;66430;50.182;11.704;2023-04-25T00:00:44;93865.61;;;9.89;42.13
77366;BME280;66430;50.182;11.704;2023-04-25T00:03:09;93865.73;;;10.29;41.70
77366;BME280;66430;50.182;11.704;2023-04-25T00:05:36;93868.13;;;10.02;42.02
77366;BME280;66430;50.182;11.704;2023-04-25T00:08:01;93866.21;;;9.96;41.57
77366;BME280;66430;50.182;11.704;2023-04-25T00:10:26;93865.70;;;10.18;41.54
77366;BME280;66430;50.182;11.704;2023-04-25T00:12:51;93863.47;;;10.37;41.72
77366;BME280;66430;50.182;11.704;2023-04-25T00:15:17;93861.36;;;10.01;41.25
77366;BME280;66430;50.182;11.704;2023-04-25T00:17:42;93857.60;;;10.15;41.39
77366;BME280;66430;50.182;11.704;2023-04-25T00:20:08;93859.11;;;10.01;41.75
77366;BME280;66430;50.182;11.704;2023-04-25T00:22:33;93856.08;;;10.19;41.42
77366;BME280;66430;50.182;11.704;2023-04-25T00:24:58;93857.59;;;10.07;41.82
77366;BME280;66430;50.182;11.704;2023-04-25T00:27:24;93853.45;;;9.90;41.39
77366;BME280;66430;50.182;11.704;2023-04-25T00:29:49;93854.70;;;9.52;42.31
77366;BME280;66430;50.182;11.704;2023-04-25T00:32:14;93851.00;;;10.13;42.30
77366;BME280;66430;50.182;11.704;2023-04-25T00:34:40;93849.14;;;9.74;42.17
77366;BME280;66430;50.182;11.704;2023-04-25T00:37:05;93847.44;;;10.09;41.63
77366;BME280;66430;50.182;11.704;2023-04-25T00:39:31;93845.33;;;9.99;41.90
77366;BME280;66430;50.182;11.704;2023-04-25T00:41:56;93847.14;;;10.15;41.48
77366;BME280;66430;50.182;11.704;2023-04-25T00:44:21;93846.26;;;10.15;41.76
77366;BME280;66430;50.182;11.704;2023-04-25T00:46:47;93842.87;;;9.89;41.73
77366;BME280;66430;50.182;11.704;2023-04-25T00:49:11;93840.49;;;10.38;41.37
77366;BME280;66430;50.182;11.704;2023-04-25T00:51:37;93839.91;;;10.14;41.79
77366;BME280;66430;50.182;11.704;2023-04-25T00:54:03;93839.15;;;10.03;41.79
77366;BME280;66430;50.182;11.704;2023-04-25T00:56:28;93835.23;;;10.00;41.73
77366;BME280;66430;50.182;11.704;2023-04-25T00:58:53;93834.31;;;9.90;41.83
77366;BME280;66430;50.182;11.704;2023-04-25T01:01:18;93833.29;;;10.01;41.54
77366;BME280;66430;50.182;11.704;2023-04-25T01:03:45;93836.07;;;10.23;41.58
77366;BME280;66430;50.182;11.704;2023-04-25T01:06:10;93835.84;;;10.20;41.53
77366;BME280;66430;50.182;11.704;2023-04-25T01:08:36;93836.50;;;10.56;41.19
77366;BME280;66430;50.182;11.704;2023-04-25T01:11:00;93835.47;;;10.59;41.35
77366;BME280;66430;50.182;11.704;2023-04-25T01:13:26;93835.11;;;10.08;41.41
77366;BME280;66430;50.182;11.704;2023-04-25T01:15:51;93834.58;;;10.18;41.19
77366;BME280;66430;50.182;11.704;2023-04-25T01:18:18;93832.18;;;10.61;41.39
77366;BME280;66430;50.182;11.704;2023-04-25T01:20:43;93829.70;;;10.05;41.39
77366;BME280;66430;50.182;11.704;2023-04-25T01:23:08;93831.33;;;10.15;41.36
77366;BME280;66430;50.182;11.704;2023-04-25T01:25:34;93830.63;;;10.41;41.12
77366;BME280;66430;50.182;11.704;2023-04-25T01:27:59;93827.89;;;10.57;41.12
77366;BME280;66430;50.182;11.704;2023-04-25T01:30:25;93826.43;;;10.34;41.23
77366;BME280;66430;50.182;11.704;2023-04-25T01:32:50;93823.62;;;10.11;41.80
77366;BME280;66430;50.182;11.704;2023-04-25T01:35:15;93820.81;;;10.34;41.13
77366;BME280;66430;50.182;11.704;2023-04-25T01:37:41;93817.97;;;10.18;41.12
77366;BME280;66430;50.182;11.704;2023-04-25T01:40:07;93815.04;;;10.23;41.25
77366;BME280;66430;50.182;11.704;2023-04-25T01:42:32;93815.08;;;10.13;41.19
77366;BME280;66430;50.182;11.704;2023-04-25T01:44:58;93816.34;;;10.49;40.87
77366;BME280;66430;50.182;11.704;2023-04-25T01:47:23;93814.44;;;10.49;40.80
77366;BME280;66430;50.182;11.704;2023-04-25T01:49:53;93810.80;;;10.83;40.64
77366;BME280;66430;50.182;11.704;2023-04-25T01:52:13;93806.48;;;10.11;40.90
77366;BME280;66430;50.182;11.704;2023-04-25T01:54:39;93806.01;;;10.34;40.55
77366;BME280;66430;50.182;11.704;2023-04-25T01:57:04;93808.64;;;9.66;40.55
77366;BME280;66430;50.182;11.704;2023-04-25T01:59:30;93812.68;;;10.19;40.23
77366;BME280;66430;50.182;11.704;2023-04-25T02:01:55;93814.23;;;10.10;40.35
77366;BME280;66430;50.182;11.704;2023-04-25T02:04:21;93817.24;;;10.22;40.41
77366;BME280;66430;50.182;11.704;2023-04-25T02:06:46;93813.52;;;10.14;40.72
77366;BME280;66430;50.182;11.704;2023-04-25T02:09:11;93811.31;;;10.13;40.55
77366;BME280;66430;50.182;11.704;2023-04-25T02:11:37;93807.63;;;9.71;41.10
77366;BME280;66430;50.182;11.704;2023-04-25T02:14:02;93804.94;;;10.02;40.95
77366;BME280;66430;50.182;11.704;2023-04-25T02:16:28;93804.83;;;10.11;40.76
77366;BME280;66430;50.182;11.704;2023-04-25T02:18:53;93803.58;;;9.86;40.64
77366;BME280;66430;50.182;11.704;2023-04-25T02:21:19;93797.45;;;9.93;40.91
77366;BME280;66430;50.182;11.704;2023-04-25T02:23:50;93796.20;;;9.91;40.95
77366;BME280;66430;50.182;11.704;2023-04-25T02:26:10;93797.89;;;10.38;40.96
77366;BME280;66430;50.182;11.704;2023-04-25T02:28:35;93798.62;;;10.18;40.74
77366;BME280;66430;50.182;11.704;2023-04-25T02:31:00;93797.08;;;9.99;41.05
77366;BME280;66430;50.182;11.704;2023-04-25T02:33:26;93792.80;;;9.77;41.84
77366;BME280;66430;50.182;11.704;2023-04-25T02:35:51;93792.55;;;10.00;41.53
77366;BME280;66430;50.182;11.704;2023-04-25T02:38:17;93788.33;;;9.89;40.99
77366;BME280;66430;50.182;11.704;2023-04-25T02:40:42;93786.26;;;10.03;41.25
77366;BME280;66430;50.182;11.704;2023-04-25T02:43:07;93781.53;;;9.99;41.45
77366;BME280;66430;50.182;11.704;2023-04-25T02:45:33;93776.71;;;9.96;41.64
77366;BME280;66430;50.182;11.704;2023-04-25T02:47:58;93771.02;;;10.07;41.26
77366;BME280;66430;50.182;11.704;2023-04-25T02:50:24;93772.54;;;9.72;42.12
77366;BME280;66430;50.182;11.704;2023-04-25T02:52:49;93775.20;;;10.10;41.88
77366;BME280;66430;50.182;11.704;2023-04-25T02:55:14;93776.70;;;9.97;41.45
77366;BME280;66430;50.182;11.704;2023-04-25T02:57:40;93777.05;;;9.78;41.57
77366;BME280;66430;50.182;11.704;2023-04-25T03:00:06;93775.86;;;10.01;41.52
77366;BME280;66430;50.182;11.704;2023-04-25T03:02:30;93771.75;;;10.10;41.55
77366;BME280;66430;50.182;11.704;2023-04-25T03:04:56;93767.73;;;9.78;41.88
77366;BME280;66430;50.182;11.704;2023-04-25T03:07:21;93764.46;;;9.69;41.69
77366;BME280;66430;50.182;11.704;2023-04-25T03:09:47;93763.47;;;9.88;41.80
77366;BME280;66430;50.182;11.704;2023-04-25T03:12:13;93766.52;;;10.08;41.56
77366;BME280;66430;50.182;11.704;2023-04-25T03:14:38;93764.15;;;10.04;41.63
77366;BME280;66430;50.182;11.704;2023-04-25T03:17:04;93761.87;;;10.03;41.63
77366;BME280;66430;50.182;11.704;2023-04-25T03:19:29;93765.01;;;9.91;41.77
77366;BME280;66430;50.182;11.704;2023-04-25T03:21:55;93760.28;;;10.35;41.74
77366;BME280;66430;50.182;11.704;2023-04-25T03:24:20;93756.62;;;10.12;41.68
77366;BME280;66430;50.182;11.704;2023-04-25T03:26:45;93757.59;;;10.23;41.47
77366;BME280;66430;50.182;11.704;2023-04-25T03:29:10;93757.52;;;10.14;41.78
77366;BME280;66430;50.182;11.704;2023-04-25T03:31:36;93753.74;;;10.24;41.51
77366;BME280;66430;50.182;11.704;2023-04-25T03:34:01;93752.47;;;9.72;41.92
77366;BME280;66430;50.182;11.704;2023-04-25T03:36:27;93751.00;;;10.50;41.47
77366;BME280;66430;50.182;11.704;2023-04-25T03:38:52;93751.42;;;10.01;41.48
77366;BME280;66430;50.182;11.704;2023-04-25T03:41:18;93751.10;;;10.24;41.72
77366;BME280;66430;50.182;11.704;2023-04-25T03:43:43;93752.25;;;9.84;42.04
77366;BME280;66430;50.182;11.704;2023-04-25T03:46:09;93749.61;;;10.11;42.06
77366;BME280;66430;50.182;11.704;2023-04-25T03:48:35;93751.40;;;10.39;41.97
77366;BME280;66430;50.182;11.704;2023-04-25T03:51:00;93752.47;;;10.13;42.00
77366;BME280;66430;50.182;11.704;2023-04-25T03:53:26;93754.15;;;10.23;41.85
77366;BME280;66430;50.182;11.704;2023-04-25T03:55:52;93751.92;;;10.16;41.96
77366;BME280;66430;50.182;11.704;2023-04-25T03:58:16;93750.80;;;10.29;41.51
77366;BME280;66430;50.182;11.704;2023-04-25T04:00:42;93747.67;;;10.11;41.34
77366;BME280;66430;50.182;11.704;2023-04-25T04:03:08;93747.91;;;10.00;41.81
77366;BME280;66430;50.182;11.704;2023-04-25T04:05:33;93752.57;;;9.67;42.78
77366;BME280;66430;50.182;11.704;2023-04-25T04:07:58;93750.79;;;10.41;41.96
77366;BME280;66430;50.182;11.704;2023-04-25T04:10:23;93746.90;;;9.72;42.01
77366;BME280;66430;50.182;11.704;2023-04-25T04:12:49;93746.35;;;10.17;42.07
77366;BME280;66430;50.182;11.704;2023-04-25T04:15:14;93747.19;;;9.96;41.85
77366;BME280;66430;50.182;11.704;2023-04-25T04:17:40;93746.83;;;10.00;42.61
77366;BME280;66430;50.182;11.704;2023-04-25T04:20:06;93746.39;;;9.71;42.54
77366;BME280;66430;50.182;11.704;2023-04-25T04:22:31;93747.21;;;9.57;43.32
77366;BME280;66430;50.182;11.704;2023-04-25T04:24:56;93750.36;;;10.05;42.46
77366;BME280;66430;50.182;11.704;2023-04-25T04:27:22;93751.70;;;10.15;42.17
77366;BME280;66430;50.182;11.704;2023-04-25T04:29:47;93753.45;;;9.90;42.42
77366;BME280;66430;50.182;11.704;2023-04-25T04:32:13;93758.33;;;10.00;42.69
77366;BME280;66430;50.182;11.704;2023-04-25T04:34:38;93759.72;;;10.20;42.29
77366;BME280;66430;50.182;11.704;2023-04-25T04:37:04;93758.61;;;9.81;42.29
77366;BME280;66430;50.182;11.704;2023-04-25T04:39:30;93766.28;;;9.62;42.78
77366;BME280;66430;50.182;11.704;2023-04-25T04:41:55;93770.90;;;9.79;41.48
77366;BME280;66430;50.182;11.704;2023-04-25T04:44:20;93771.02;;;9.42;41.65
77366;BME280;66430;50.182;11.704;2023-04-25T04:46:46;93777.43;;;9.41;42.18
77366;BME280;66430;50.182;11.704;2023-04-25T04:49:12;93782.14;;;9.10;41.90
77366;BME280;66430;50.182;11.704;2023-04-25T04:51:37;93792.36;;;8.65;41.35
77366;BME280;66430;50.182;11.704;2023-04-25T04:54:03;93793.82;;;8.00;42.38
77366;BME280;66430;50.182;11.704;2023-04-25T04:56:29;93798.66;;;8.04;42.08
77366;BME280;66430;50.182;11.704;2023-04-25T04:58:54;93799.57;;;8.00;42.16
77366;BME280;66430;50.182;11.704;2023-04-25T05:01:25;93798.03;;;7.85;42.50
77366;BME280;66430;50.182;11.704;2023-04-25T05:03:50;93801.36;;;7.78;41.57
77366;BME280;66430;50.182;11.704;2023-04-25T05:06:11;93803.97;;;7.73;41.97
77366;BME280;66430;50.182;11.704;2023-04-25T05:08:41;93809.21;;;7.75;42.27
77366;BME280;66430;50.182;11.704;2023-04-25T05:11:02;93812.69;;;7.84;42.59
77366;BME280;66430;50.182;11.704;2023-04-25T05:13:27;93813.94;;;7.80;42.48
77366;BME280;66430;50.182;11.704;2023-04-25T05:15:52;93817.13;;;7.78;42.15
77366;BME280;66430;50.182;11.704;2023-04-25T05:18:23;93816.08;;;7.75;42.87
77366;BME280;66430;50.182;11.704;2023-04-25T05:20:44;93813.43;;;7.79;42.55
77366;BME280;66430;50.182;11.704;2023-04-25T05:23:09;93810.30;;;7.99;42.10
77366;BME280;66430;50.182;11.704;2023-04-25T05:25:34;93807.29;;;7.76;42.20
77366;BME280;66430;50.182;11.704;2023-04-25T05:28:00;93806.40;;;8.12;42.60
77366;BME280;66430;50.182;11.704;2023-04-25T05:30:26;93808.62;;;7.59;43.56
77366;BME280;66430;50.182;11.704;2023-04-25T05:32:51;93813.88;;;7.83;43.32
77366;BME280;66430;50.182;11.704;2023-04-25T05:35:17;93817.40;;;7.84;43.29
77366;BME280;66430;50.182;11.704;2023-04-25T05:37:43;93816.26;;;8.00;42.04
77366;BME280;66430;50.182;11.704;2023-04-25T05:40:08;93822.28;;;7.87;42.76
77366;BME280;66430;50.182;11.704;2023-04-25T05:42:34;93824.38;;;7.89;42.79
77366;BME280;66430;50.182;11.704;2023-04-25T05:44:59;93827.31;;;8.26;41.10
77366;BME280;66430;50.182;11.704;2023-04-25T05:47:24;93821.61;;;7.92;41.36
77366;BME280;66430;50.182;11.704;2023-04-25T05:49:50;93818.22;;;7.88;40.53
77366;BME280;66430;50.182;11.704;2023-04-25T05:52:15;93817.61;;;8.27;39.30
77366;BME280;66430;50.182;11.704;2023-04-25T05:54:41;93812.26;;;7.97;39.70
77366;BME280;66430;50.182;11.704;2023-04-25T05:57:06;93812.21;;;7.92;40.23
77366;BME280;66430;50.182;11.704;2023-04-25T05:59:32;93813.22;;;7.88;38.71
77366;BME280;66430;50.182;11.704;2023-04-25T06:01:57;93816.08;;;8.06;39.89
77366;BME280;66430;50.182;11.704;2023-04-25T06:04:23;93820.79;;;7.70;40.90
77366;BME280;66430;50.182;11.704;2023-04-25T06:06:48;93824.46;;;8.03;41.68
77366;BME280;66430;50.182;11.704;2023-04-25T06:09:13;93825.79;;;8.22;41.59
77366;BME280;66430;50.182;11.704;2023-04-25T06:11:39;93830.57;;;8.31;41.89
77366;BME280;66430;50.182;11.704;2023-04-25T06:14:06;93830.99;;;8.39;41.84
77366;BME280;66430;50.182;11.704;2023-04-25T06:16:30;93830.11;;;8.61;42.01
77366;BME280;66430;50.182;11.704;2023-04-25T06:18:56;93833.56;;;8.32;42.64
77366;BME280;66430;50.182;11.704;2023-04-25T06:21:21;93837.56;;;8.44;42.67
77366;BME280;66430;50.182;11.704;2023-04-25T06:23:47;93839.48;;;8.21;42.89
77366;BME280;66430;50.182;11.704;2023-04-25T06:26:12;93840.75;;;8.36;42.49
77366;BME280;66430;50.182;11.704;2023-04-25T06:28:38;93841.42;;;8.43;42.85
77366;BME280;66430;50.182;11.704;2023-04-25T06:31:03;93844.46;;;8.93;42.32
77366;BME280;66430;50.182;11.704;2023-04-25T06:33:29;93841.14;;;8.53;42.14
77366;BME280;66430;50.182;11.704;2023-04-25T06:35:54;93832.66;;;8.62;41.53
77366;BME280;66430;50.182;11.704;2023-04-25T06:38:20;93829.54;;;9.02;41.53
77366;BME280;66430;50.182;11.704;2023-04-25T06:40:45;93832.35;;;8.87;41.72
77366;BME280;66430;50.182;11.704;2023-04-25T06:43:11;93834.26;;;8.73;42.00
77366;BME280;66430;50.182;11.704;2023-04-25T06:45:36;93836.19;;;8.54;42.30
77366;BME280;66430;50.182;11.704;2023-04-25T06:48:01;93837.04;;;8.54;42.77
77366;BME280;66430;50.182;11.704;2023-04-25T06:50:27;93838.90;;;8.52;42.74
77366;BME280;66430;50.182;11.704;2023-04-25T06:52:52;93838.67;;;8.54;43.29
77366;BME280;66430;50.182;11.704;2023-04-25T06:55:18;93837.32;;;8.81;42.56
77366;BME280;66430;50.182;11.704;2023-04-25T06:57:44;93831.62;;;9.01;42.89
77366;BME280;66430;50.182;11.704;2023-04-25T07:00:10;93837.44;;;8.82;42.31
77366;BME280;66430;50.182;11.704;2023-04-25T07:02:35;93842.37;;;8.98;42.63
77366;BME280;66430;50.182;11.704;2023-04-25T07:05:00;93841.63;;;8.82;42.71
77366;BME280;66430;50.182;11.704;2023-04-25T07:07:26;93842.73;;;8.94;42.90
77366;BME280;66430;50.182;11.704;2023-04-25T07:09:51;93845.41;;;9.32;42.97
77366;BME280;66430;50.182;11.704;2023-04-25T07:12:16;93847.16;;;9.53;43.06
77366;BME280;66430;50.182;11.704;2023-04-25T07:14:42;93849.91;;;9.12;42.82
77366;BME280;66430;50.182;11.704;2023-04-25T07:17:12;93849.54;;;9.44;42.13
77366;BME280;66430;50.182;11.704;2023-04-25T07:19:33;93851.76;;;9.65;43.34
77366;BME280;66430;50.182;11.704;2023-04-25T07:21:58;93848.83;;;9.66;42.81
77366;BME280;66430;50.182;11.704;2023-04-25T07:24:24;93851.97;;;9.62;42.70
77366;BME280;66430;50.182;11.704;2023-04-25T07:26:49;93850.05;;;10.06;42.48
77366;BME280;66430;50.182;11.704;2023-04-25T07:29:15;93848.14;;;9.77;42.86
77366;BME280;66430;50.182;11.704;2023-04-25T07:31:40;93845.63;;;9.89;40.14
77366;BME280;66430;50.182;11.704;2023-04-25T07:34:10;93845.76;;;9.96;38.41
77366;BME280;66430;50.182;11.704;2023-04-25T07:36:31;93848.67;;;9.93;40.88
77366;BME280;66430;50.182;11.704;2023-04-25T07:38:56;93849.03;;;9.90;38.82
77366;BME280;66430;50.182;11.704;2023-04-25T07:41:21;93850.63;;;9.98;39.18
77366;BME280;66430;50.182;11.704;2023-04-25T07:43:47;93855.11;;;9.35;40.52
77366;BME280;66430;50.182;11.704;2023-04-25T07:46:12;93856.56;;;9.78;39.23
77366;BME280;66430;50.182;11.704;2023-04-25T07:48:38;93861.51;;;9.89;40.44
77366;BME280;66430;50.182;11.704;2023-04-25T07:51:04;93865.41;;;10.11;38.49
77366;BME280;66430;50.182;11.704;2023-04-25T07:53:29;93868.72;;;9.99;38.62
77366;BME280;66430;50.182;11.704;2023-04-25T07:55:54;93868.46;;;9.64;40.16
77366;BME280;66430;50.182;11.704;2023-04-25T07:58:19;93873.39;;;9.45;38.19
77366;BME280;66430;50.182;11.704;2023-04-25T08:00:45;93878.36;;;9.25;39.14
77366;BME280;66430;50.182;11.704;2023-04-25T08:03:11;93881.18;;;9.49;40.02
77366;BME280;66430;50.182;11.704;2023-04-25T08:05:36;93883.73;;;9.60;39.86
77366;BME280;66430;50.182;11.704;2023-04-25T08:08:06;93888.74;;;9.75;40.73
77366;BME280;66430;50.182;11.704;2023-04-25T08:10:27;93888.21;;;9.65;41.72
77366;BME280;66430;50.182;11.704;2023-04-25T08:12:52;93890.83;;;9.50;40.60
77366;BME280;66430;50.182;11.704;2023-04-25T08:15:17;93893.77;;;9.54;41.43
77366;BME280;66430;50.182;11.704;2023-04-25T08:17:43;93894.86;;;9.89;40.12
77366;BME280;66430;50.182;11.704;2023-04-25T08:20:09;93898.99;;;10.16;39.92
77366;BME280;66430;50.182;11.704;2023-04-25T08:22:38;93899.34;;;9.81;40.38
77366;BME280;66430;50.182;11.704;2023-04-25T08:24:59;93899.60;;;10.02;39.06
77366;BME280;66430;50.182;11.704;2023-04-25T08:27:25;93901.27;;;9.70;40.78
77366;BME280;66430;50.182;11.704;2023-04-25T08:29:50;93902.46;;;9.83;40.75
77366;BME280;66430;50.182;11.704;2023-04-25T08:32:15;93904.85;;;9.90;40.91
77366;BME280;66430;50.182;11.704;2023-04-25T08:34:41;93907.77;;;10.11;40.60
77366;BME280;66430;50.182;11.704;2023-04-25T08:37:11;93904.96;;;10.41;40.37
77366;BME280;66430;50.182;11.704;2023-04-25T08:39:32;93905.16;;;10.34;40.74
77366;BME280;66430;50.182;11.704;2023-04-25T08:41:57;93909.39;;;10.42;42.35
77366;BME280;66430;50.182;11.704;2023-04-25T08:44:24;93914.07;;;10.84;40.50
77366;BME280;66430;50.182;11.704;2023-04-25T08:46:48;93915.36;;;10.89;39.42
77366;BME280;66430;50.182;11.704;2023-04-25T08:49:13;93917.35;;;10.93;39.35
77366;BME280;66430;50.182;11.704;2023-04-25T08:51:45;93923.42;;;10.95;37.01
77366;BME280;66430;50.182;11.704;2023-04-25T08:54:09;93924.96;;;10.71;38.75
77366;BME280;66430;50.182;11.704;2023-04-25T08:56:32;93927.61;;;10.60;39.74
77366;BME280;66430;50.182;11.704;2023-04-25T08:58:55;93928.78;;;10.56;40.49
77366;BME280;66430;50.182;11.704;2023-04-25T09:01:21;93930.36;;;11.20;39.15
77366;BME280;66430;50.182;11.704;2023-04-25T09:03:46;93928.23;;;10.96;40.03
77366;BME280;66430;50.182;11.704;2023-04-25T09:06:11;93936.77;;;10.74;40.60
77366;BME280;66430;50.182;11.704;2023-04-25T09:08:37;93938.11;;;11.08;37.18
77366;BME280;66430;50.182;11.704;2023-04-25T09:11:02;93942.19;;;11.24;38.89
77366;BME280;66430;50.182;11.704;2023-04-25T09:13:28;93939.68;;;11.37;35.67
77366;BME280;66430;50.182;11.704;2023-04-25T09:15:55;93938.50;;;11.30;35.61
77366;BME280;66430;50.182;11.704;2023-04-25T09:18:24;93938.26;;;11.87;37.06
77366;BME280;66430;50.182;11.704;2023-04-25T09:20:44;93937.36;;;11.59;36.29
77366;BME280;66430;50.182;11.704;2023-04-25T09:23:09;93937.68;;;11.38;37.95
77366;BME280;66430;50.182;11.704;2023-04-25T09:25:35;93942.16;;;11.83;36.32
77366;BME280;66430;50.182;11.704;2023-04-25T09:28:04;93944.71;;;11.51;35.48
77366;BME280;66430;50.182;11.704;2023-04-25T09:30:29;93950.26;;;10.98;37.42
77366;BME280;66430;50.182;11.704;2023-04-25T09:32:51;93951.89;;;11.01;37.87
77366;BME280;66430;50.182;11.704;2023-04-25T09:35:25;93950.67;;;11.25;37.46
77366;BME280;66430;50.182;11.704;2023-04-25T09:37:42;93953.63;;;11.32;36.85
77366;BME280;66430;50.182;11.704;2023-04-25T09:40:08;93956.86;;;11.00;37.66
77366;BME280;66430;50.182;11.704;2023-04-25T09:42:33;93954.29;;;11.45;37.47
77366;BME280;66430;50.182;11.704;2023-04-25T09:44:59;93955.03;;;11.43;36.79
77366;BME280;66430;50.182;11.704;2023-04-25T09:47:26;93954.60;;;11.68;36.83
77366;BME280;66430;50.182;11.704;2023-04-25T09:49:51;93952.61;;;11.86;36.82
77366;BME280;66430;50.182;11.704;2023-04-25T09:52:16;93949.36;;;11.68;35.60
77366;BME280;66430;50.182;11.704;2023-04-25T09:54:40;93950.98;;;12.04;34.22
77366;BME280;66430;50.182;11.704;2023-04-25T09:57:11;93955.69;;;11.87;33.23
77366;BME280;66430;50.182;11.704;2023-04-25T09:59:32;93954.26;;;11.72;35.15
77366;BME280;66430;50.182;11.704;2023-04-25T10:01:57;93954.49;;;11.51;33.78
77366;BME280;66430;50.182;11.704;2023-04-25T10:04:25;93955.76;;;11.33;34.95
77366;BME280;66430;50.182;11.704;2023-04-25T10:06:49;93958.51;;;11.19;36.51
77366;BME280;66430;50.182;11.704;2023-04-25T10:09:14;93958.82;;;11.38;34.80
77366;BME280;66430;50.182;11.704;2023-04-25T10:11:39;93961.72;;;11.32;37.68
77366;BME280;66430;50.182;11.704;2023-04-25T10:14:05;93965.29;;;11.72;37.65
77366;BME280;66430;50.182;11.704;2023-04-25T10:16:30;93961.66;;;11.68;37.30
77366;BME280;66430;50.182;11.704;2023-04-25T10:18:55;93966.07;;;11.79;37.38
77366;BME280;66430;50.182;11.704;2023-04-25T10:21:22;93963.98;;;11.91;38.33
77366;BME280;66430;50.182;11.704;2023-04-25T10:23:49;93963.20;;;12.66;35.99
77366;BME280;66430;50.182;11.704;2023-04-25T10:26:11;93964.50;;;12.65;35.01
77366;BME280;66430;50.182;11.704;2023-04-25T10:31:04;93965.27;;;12.27;34.24
77366;BME280;66430;50.182;11.704;2023-04-25T10:33:33;93972.28;;;12.06;32.08
77366;BME280;66430;50.182;11.704;2023-04-25T10:35:58;93975.13;;;12.54;32.33
77366;BME280;66430;50.182;11.704;2023-04-25T10:38:19;93972.44;;;12.40;32.81
77366;BME280;66430;50.182;11.704;2023-04-25T10:48:01;93971.88;;;11.62;31.66
77366;BME280;66430;50.182;11.704;2023-04-25T10:50:41;93968.26;;;11.53;33.65
77366;BME280;66430;50.182;11.704;2023-04-25T10:52:52;93971.66;;;11.88;32.29
77366;BME280;66430;50.182;11.704;2023-04-25T10:55:18;93972.96;;;11.55;34.18
77366;BME280;66430;50.182;11.704;2023-04-25T10:57:44;93976.99;;;11.92;32.41
77366;BME280;66430;50.182;11.704;2023-04-25T11:00:13;93985.65;;;11.60;31.92
77366;BME280;66430;50.182;11.704;2023-04-25T11:02:37;93997.37;;;10.99;33.12
77366;BME280;66430;50.182;11.704;2023-04-25T11:05:00;93998.70;;;10.80;33.50
77366;BME280;66430;50.182;11.704;2023-04-25T11:07:32;94003.28;;;10.69;34.60
77366;BME280;66430;50.182;11.704;2023-04-25T11:09:50;94005.10;;;10.18;35.88
77366;BME280;66430;50.182;11.704;2023-04-25T11:12:15;94001.61;;;9.83;35.82
77366;BME280;66430;50.182;11.704;2023-04-25T11:14:40;94003.71;;;10.18;36.37
77366;BME280;66430;50.182;11.704;2023-04-25T11:17:06;94002.58;;;10.06;36.42
77366;BME280;66430;50.182;11.704;2023-04-25T11:19:31;94009.84;;;9.82;36.77
77366;BME280;66430;50.182;11.704;2023-04-25T11:21:58;94014.57;;;9.93;36.04
77366;BME280;66430;50.182;11.704;2023-04-25T11:24:26;94011.55;;;9.31;35.57
77366;BME280;66430;50.182;11.704;2023-04-25T11:26:48;94009.82;;;10.00;35.20
77366;BME280;66430;50.182;11.704;2023-04-25T11:29:13;94016.66;;;10.17;35.29
77366;BME280;66430;50.182;11.704;2023-04-25T11:31:39;94015.86;;;10.22;34.79
77366;BME280;66430;50.182;11.704;2023-04-25T11:34:04;94020.04;;;10.15;34.87
77366;BME280;66430;50.182;11.704;2023-04-25T11:36:30;94022.27;;;9.94;34.47
77366;BME280;66430;50.182;11.704;2023-04-25T11:38:55;94017.19;;;10.36;34.66
77366;BME280;66430;50.182;11.704;2023-04-25T11:41:20;94018.26;;;10.26;34.98
77366;BME280;66430;50.182;11.704;2023-04-25T11:43:46;94016.99;;;10.59;34.03
77366;BME280;66430;50.182;11.704;2023-04-25T11:46:12;94019.99;;;10.45;35.22
77366;BME280;66430;50.182;11.704;2023-04-25T11:48:38;94022.63;;;10.22;34.86
77366;BME280;66430;50.182;11.704;2023-04-25T11:51:04;94030.36;;;10.39;34.81
77366;BME280;66430;50.182;11.704;2023-04-25T11:53:33;94028.01;;;10.61;35.39
77366;BME280;66430;50.182;11.704;2023-04-25T11:55:53;94029.37;;;10.33;34.72
77366;BME280;66430;50.182;11.704;2023-04-25T11:58:24;94042.17;;;10.59;34.30
77366;BME280;66430;50.182;11.704;2023-04-25T12:00:44;94048.62;;;10.39;35.25
77366;BME280;66430;50.182;11.704;2023-04-25T12:03:10;94049.92;;;9.96;35.14
77366;BME280;66430;50.182;11.704;2023-04-25T12:05:35;94051.06;;;10.17;36.80
77366;BME280;66430;50.182;11.704;2023-04-25T12:08:10;94055.60;;;10.63;35.85
77366;BME280;66430;50.182;11.704;2023-04-25T12:10:26;94050.72;;;10.70;36.96
77366;BME280;66430;50.182;11.704;2023-04-25T12:12:52;94048.80;;;10.30;37.95
77366;BME280;66430;50.182;11.704;2023-04-25T12:15:19;94051.34;;;10.23;38.58
77366;BME280;66430;50.182;11.704;2023-04-25T12:17:45;94051.45;;;10.14;39.53
77366;BME280;66430;50.182;11.704;2023-04-25T12:20:12;94056.97;;;10.53;39.05
77366;BME280;66430;50.182;11.704;2023-04-25T12:22:34;94058.05;;;10.63;38.46
77366;BME280;66430;50.182;11.704;2023-04-25T12:25:00;94060.34;;;11.08;36.81
77366;BME280;66430;50.182;11.704;2023-04-25T12:27:26;94060.90;;;11.06;36.38
77366;BME280;66430;50.182;11.704;2023-04-25T12:29:52;94067.13;;;10.57;37.51
77366;BME280;66430;50.182;11.704;2023-04-25T12:32:16;94073.44;;;10.42;37.84
77366;BME280;66430;50.182;11.704;2023-04-25T12:34:41;94078.35;;;10.27;36.84
77366;BME280;66430;50.182;11.704;2023-04-25T12:37:06;94088.87;;;9.54;37.69
77366;BME280;66430;50.182;11.704;2023-04-25T12:39:32;94084.62;;;8.61;38.84
77366;BME280;66430;50.182;11.704;2023-04-25T12:41:57;94081.35;;;9.19;38.97
77366;BME280;66430;50.182;11.704;2023-04-25T12:44:23;94082.86;;;9.15;38.49
77366;BME280;66430;50.182;11.704;2023-04-25T12:46:48;94080.39;;;8.53;39.78
77366;BME280;66430;50.182;11.704;2023-04-25T12:49:14;94078.83;;;9.15;40.40
77366;BME280;66430;50.182;11.704;2023-04-25T12:51:45;94080.47;;;9.28;40.15
77366;BME280;66430;50.182;11.704;2023-04-25T12:54:06;94083.82;;;9.56;40.72